sensor_id;sensor_type;location;lat;lon;timestamp;pressure;altitude;pressure_sealevel;temperature;humidity
19600;BME280;9947;57.722;12.012;2023-02-14T00:01:35;102949.84;;;2.47;100.00
19600;BME280;9947;57.722;12.012;2023-02-14T00:04:13;102954.22;;;2.53;100.00
19600;BME280;9947;57.722;12.012;2023-02-14T00:06:47;102958.66;;;2.54;100.00
19600;BME280;9947;57.722;12.012;2023-02-14T00:09:21;102948.88;;;2.55;100.00
19600;BME280;9947;57.722;12.012;2023-02-14T00:11:48;102946.19;;;2.55;100.00
19600;BME280;9947;57.722;12.012;2023-02-14T00:14:22;102941.72;;;2.58;100.00
19600;BME280;9947;57.722;12.012;2023-02-14T00:17:08;102947.06;;;2.61;100.00
19600;BME280;9947;57.722;12.012;2023-02-14T00:19:41;102945.31;;;2.56;100.00
19600;BME280;9947;57.722;12.012;2023-02-14T00:22:08;102947.09;;;2.55;100.00
19600;BME280;9947;57.722;12.012;2023-02-14T00:24:42;102938.19;;;2.56;100.00
19600;BME280;9947;57.722;12.012;2023-02-14T00:27:15;102933.75;;;2.55;100.00
19600;BME280;9947;57.722;12.012;2023-02-14T00:29:49;102943.56;;;2.53;100.00
19600;BME280;9947;57.722;12.012;2023-02-14T00:32:17;102943.56;;;2.50;100.00
19600;BME280;9947;57.722;12.012;2023-02-14T00:34:51;102937.38;;;2.48;100.00
19600;BME280;9947;57.722;12.012;2023-02-14T00:37:18;102945.38;;;2.48;100.00
19600;BME280;9947;57.722;12.012;2023-02-14T00:39:51;102951.59;;;2.50;100.00
19600;BME280;9947;57.722;12.012;2023-02-14T00:42:18;102948.00;;;2.53;100.00
19600;BME280;9947;57.722;12.012;2023-02-14T00:44:51;102942.69;;;2.51;100.00
19600;BME280;9947;57.722;12.012;2023-02-14T00:47:26;102937.28;;;2.60;100.00
19600;BME280;9947;57.722;12.012;2023-02-14T00:49:59;102931.03;;;2.58;100.00
19600;BME280;9947;57.722;12.012;2023-02-14T00:52:32;102933.72;;;2.58;100.00
19600;BME280;9947;57.722;12.012;2023-02-14T00:55:05;102932.81;;;2.61;100.00
19600;BME280;9947;57.722;12.012;2023-02-14T00:57:32;102937.28;;;2.57;100.00
19600;BME280;9947;57.722;12.012;2023-02-14T01:00:06;102939.16;;;2.47;100.00
19600;BME280;9947;57.722;12.012;2023-02-14T01:02:41;102937.34;;;2.50;100.00
19600;BME280;9947;57.722;12.012;2023-02-14T01:05:08;102947.16;;;2.49;100.00
19600;BME280;9947;57.722;12.012;2023-02-14T01:07:42;102936.44;;;2.52;100.00
19600;BME280;9947;57.722;12.012;2023-02-14T01:10:15;102939.09;;;2.55;100.00
19600;BME280;9947;57.722;12.012;2023-02-14T01:12:42;102927.53;;;2.53;100.00
19600;BME280;9947;57.722;12.012;2023-02-14T01:15:15;102926.69;;;2.48;100.00
19600;BME280;9947;57.722;12.012;2023-02-14T01:17:49;102935.59;;;2.47;100.00
19600;BME280;9947;57.722;12.012;2023-02-14T01:20:16;102933.88;;;2.40;100.00
19600;BME280;9947;57.722;12.012;2023-02-14T01:22:50;102936.53;;;2.41;100.00
19600;BME280;9947;57.722;12.012;2023-02-14T01:25:24;102937.38;;;2.48;100.00
19600;BME280;9947;57.722;12.012;2023-02-14T01:27:57;102932.06;;;2.45;100.00
19600;BME280;9947;57.722;12.012;2023-02-14T01:30:30;102941.88;;;2.41;100.00
19600;BME280;9947;57.722;12.012;2023-02-14T01:32:59;102944.53;;;2.44;100.00
19600;BME280;9947;57.722;12.012;2023-02-14T01:35:36;102931.16;;;2.46;100.00
19600;BME280;9947;57.722;12.012;2023-02-14T01:38:03;102939.25;;;2.35;100.00
19600;BME280;9947;57.722;12.012;2023-02-14T01:40:41;102938.34;;;2.33;100.00
19600;BME280;9947;57.722;12.012;2023-02-14T01:43:12;102942.00;;;2.23;100.00
19600;BME280;9947;57.722;12.012;2023-02-14T01:45:47;102938.53;;;2.13;100.00
19600;BME280;9947;57.722;12.012;2023-02-14T01:48:21;102941.19;;;2.07;100.00
19600;BME280;9947;57.722;12.012;2023-02-14T01:50:56;102937.66;;;2.05;100.00
19600;BME280;9947;57.722;12.012;2023-02-14T01:53:30;102935.88;;;2.07;100.00
19600;BME280;9947;57.722;12.012;2023-02-14T01:56:00;102933.22;;;2.04;100.00
19600;BME280;9947;57.722;12.012;2023-02-14T01:58:37;102938.63;;;1.94;100.00
19600;BME280;9947;57.722;12.012;2023-02-14T02:01:04;102944.84;;;1.97;100.00
19600;BME280;9947;57.722;12.012;2023-02-14T02:03:44;102942.22;;;1.90;100.00
19600;BME280;9947;57.722;12.012;2023-02-14T02:06:16;102939.59;;;1.87;100.00
19600;BME280;9947;57.722;12.012;2023-02-14T02:08:57;102939.50;;;1.96;100.00
19600;BME280;9947;57.722;12.012;2023-02-14T02:11:26;102945.75;;;1.93;100.00
19600;BME280;9947;57.722;12.012;2023-02-14T02:14:12;102943.13;;;1.90;100.00
19600;BME280;9947;57.722;12.012;2023-02-14T02:16:59;102947.56;;;1.87;100.00
19600;BME280;9947;57.722;12.012;2023-02-14T02:20:01;102941.34;;;1.86;100.00
19600;BME280;9947;57.722;12.012;2023-02-14T02:22:55;102944.91;;;1.80;100.00
19600;BME280;9947;57.722;12.012;2023-02-14T02:25:53;102938.72;;;1.78;100.00
19600;BME280;9947;57.722;12.012;2023-02-14T02:28:54;102942.28;;;1.74;100.00
19600;BME280;9947;57.722;12.012;2023-02-14T02:31:55;102936.97;;;1.73;100.00
19600;BME280;9947;57.722;12.012;2023-02-14T02:37:49;102930.78;;;1.68;100.00
19600;BME280;9947;57.722;12.012;2023-02-14T02:40:28;102929.00;;;1.67;100.00
19600;BME280;9947;57.722;12.012;2023-02-14T02:43:20;102929.00;;;1.67;100.00
19600;BME280;9947;57.722;12.012;2023-02-14T02:45:59;102925.44;;;1.68;100.00
19600;BME280;9947;57.722;12.012;2023-02-14T02:48:56;102929.88;;;1.69;100.00
19600;BME280;9947;57.722;12.012;2023-02-14T02:51:31;102933.47;;;1.63;100.00
19600;BME280;9947;57.722;12.012;2023-02-14T02:54:33;102936.13;;;1.66;100.00
19600;BME280;9947;57.722;12.012;2023-02-14T02:57:13;102937.06;;;1.59;100.00
19600;BME280;9947;57.722;12.012;2023-02-14T02:59:44;102930.84;;;1.59;100.00
19600;BME280;9947;57.722;12.012;2023-02-14T03:02:22;102945.91;;;1.64;100.00
19600;BME280;9947;57.722;12.012;2023-02-14T03:04:54;102935.22;;;1.66;100.00
19600;BME280;9947;57.722;12.012;2023-02-14T03:07:33;102932.53;;;1.70;100.00
19600;BME280;9947;57.722;12.012;2023-02-14T03:10:08;102937.00;;;1.68;100.00
19600;BME280;9947;57.722;12.012;2023-02-14T03:16:08;102940.56;;;1.66;100.00
19600;BME280;9947;57.722;12.012;2023-02-14T03:19:27;102943.22;;;1.67;100.00
19600;BME280;9947;57.722;12.012;2023-02-14T03:22:24;102946.81;;;1.63;100.00
19600;BME280;9947;57.722;12.012;2023-02-14T03:24:56;102938.78;;;1.68;100.00
19600;BME280;9947;57.722;12.012;2023-02-14T03:27:38;102939.72;;;1.61;100.00
19600;BME280;9947;57.722;12.012;2023-02-14T03:30:17;102942.34;;;1.67;100.00
19600;BME280;9947;57.722;12.012;2023-02-14T03:32:56;102940.53;;;1.72;100.00
19600;BME280;9947;57.722;12.012;2023-02-14T03:35:29;102944.03;;;1.81;100.00
19600;BME280;9947;57.722;12.012;2023-02-14T03:38:08;102939.59;;;1.87;100.00
19600;BME280;9947;57.722;12.012;2023-02-14T03:40:46;102942.19;;;1.94;100.00
19600;BME280;9947;57.722;12.012;2023-02-14T03:43:27;102945.75;;;1.95;100.00
19600;BME280;9947;57.722;12.012;2023-02-14T03:46:02;102951.00;;;2.08;100.00
19600;BME280;9947;57.722;12.012;2023-02-14T03:48:37;102944.75;;;2.12;100.00
19600;BME280;9947;57.722;12.012;2023-02-14T03:51:08;102934.97;;;2.14;100.00
19600;BME280;9947;57.722;12.012;2023-02-14T03:53:46;102934.06;;;2.15;100.00
19600;BME280;9947;57.722;12.012;2023-02-14T03:56:27;102937.59;;;2.17;100.00
19600;BME280;9947;57.722;12.012;2023-02-14T03:59:09;102938.50;;;2.16;100.00
19600;BME280;9947;57.722;12.012;2023-02-14T04:01:47;102934.09;;;2.12;100.00
19600;BME280;9947;57.722;12.012;2023-02-14T04:04:31;102943.00;;;2.11;100.00
19600;BME280;9947;57.722;12.012;2023-02-14T04:07:07;102941.19;;;2.07;100.00
19600;BME280;9947;57.722;12.012;2023-02-14T04:09:41;102942.09;;;2.12;100.00
19600;BME280;9947;57.722;12.012;2023-02-14T04:12:09;102952.75;;;2.12;100.00
19600;BME280;9947;57.722;12.012;2023-02-14T04:14:43;102942.03;;;2.19;100.00
19600;BME280;9947;57.722;12.012;2023-02-14T04:17:17;102933.16;;;2.16;100.00
19600;BME280;9947;57.722;12.012;2023-02-14T04:20:01;102936.75;;;2.12;100.00
19600;BME280;9947;57.722;12.012;2023-02-14T04:22:34;102935.88;;;2.09;100.00
19600;BME280;9947;57.722;12.012;2023-02-14T04:25:08;102936.75;;;2.08;100.00
19600;BME280;9947;57.722;12.012;2023-02-14T04:27:41;102929.66;;;2.08;100.00
19600;BME280;9947;57.722;12.012;2023-02-14T04:30:10;102927.00;;;2.08;100.00
19600;BME280;9947;57.722;12.012;2023-02-14T04:32:45;102932.34;;;2.08;100.00
19600;BME280;9947;57.722;12.012;2023-02-14T04:35:12;102939.44;;;2.09;100.00
19600;BME280;9947;57.722;12.012;2023-02-14T04:37:46;102946.53;;;2.15;100.00
19600;BME280;9947;57.722;12.012;2023-02-14T04:40:13;102944.72;;;2.17;100.00
19600;BME280;9947;57.722;12.012;2023-02-14T04:42:46;102950.91;;;2.24;100.00
19600;BME280;9947;57.722;12.012;2023-02-14T04:45:15;102949.09;;;2.27;100.00
19600;BME280;9947;57.722;12.012;2023-02-14T04:47:48;102948.19;;;2.30;100.00
19600;BME280;9947;57.722;12.012;2023-02-14T04:50:16;102949.91;;;2.34;100.00
19600;BME280;9947;57.722;12.012;2023-02-14T04:52:50;102945.50;;;2.36;100.00
19600;BME280;9947;57.722;12.012;2023-02-14T04:55:17;102943.66;;;2.41;100.00
19600;BME280;9947;57.722;12.012;2023-02-14T04:57:51;102943.66;;;2.41;100.00
19600;BME280;9947;57.722;12.012;2023-02-14T05:00:20;102948.91;;;2.50;100.00
19600;BME280;9947;57.722;12.012;2023-02-14T05:02:53;102947.97;;;2.56;100.00
19600;BME280;9947;57.722;12.012;2023-02-14T05:05:27;102946.22;;;2.52;100.00
19600;BME280;9947;57.722;12.012;2023-02-14T05:08:00;102942.66;;;2.54;100.00
19600;BME280;9947;57.722;12.012;2023-02-14T05:10:27;102935.53;;;2.53;100.00
19600;BME280;9947;57.722;12.012;2023-02-14T05:12:54;102942.69;;;2.50;100.00
19600;BME280;9947;57.722;12.012;2023-02-14T05:15:31;102941.78;;;2.52;100.00
19600;BME280;9947;57.722;12.012;2023-02-14T05:18:07;102947.09;;;2.55;100.00
19600;BME280;9947;57.722;12.012;2023-02-14T05:20:34;102936.41;;;2.54;100.00
19600;BME280;9947;57.722;12.012;2023-02-14T05:23:07;102943.50;;;2.58;100.00
19600;BME280;9947;57.722;12.012;2023-02-14T05:25:38;102940.81;;;2.59;100.00
19600;BME280;9947;57.722;12.012;2023-02-14T05:28:11;102947.03;;;2.64;100.00
19600;BME280;9947;57.722;12.012;2023-02-14T05:30:39;102948.81;;;2.64;100.00
19600;BME280;9947;57.722;12.012;2023-02-14T05:33:13;102943.41;;;2.71;100.00
19600;BME280;9947;57.722;12.012;2023-02-14T05:35:46;102938.97;;;2.70;100.00
19600;BME280;9947;57.722;12.012;2023-02-14T05:38:13;102945.13;;;2.75;100.00
19600;BME280;9947;57.722;12.012;2023-02-14T05:40:46;102946.97;;;2.70;100.00
19600;BME280;9947;57.722;12.012;2023-02-14T05:43:19;102949.69;;;2.67;100.00
19600;BME280;9947;57.722;12.012;2023-02-14T05:45:48;102950.53;;;2.71;100.00
19600;BME280;9947;57.722;12.012;2023-02-14T05:48:21;102948.84;;;2.62;100.00
19600;BME280;9947;57.722;12.012;2023-02-14T05:50:48;102953.22;;;2.68;100.00
19600;BME280;9947;57.722;12.012;2023-02-14T05:53:21;102948.78;;;2.68;100.00
19600;BME280;9947;57.722;12.012;2023-02-14T05:55:55;102955.84;;;2.72;100.00
19600;BME280;9947;57.722;12.012;2023-02-14T05:58:28;102954.88;;;2.79;100.00
19600;BME280;9947;57.722;12.012;2023-02-14T06:00:57;102954.97;;;2.73;100.00
19600;BME280;9947;57.722;12.012;2023-02-14T06:03:30;102946.94;;;2.73;100.00
19600;BME280;9947;57.722;12.012;2023-02-14T06:05:57;102947.72;;;2.88;100.00
19600;BME280;9947;57.722;12.012;2023-02-14T06:08:30;102952.22;;;2.79;100.00
19600;BME280;9947;57.722;12.012;2023-02-14T06:10:57;102967.34;;;2.81;100.00
19600;BME280;9947;57.722;12.012;2023-02-14T06:13:31;102958.53;;;2.72;100.00
19600;BME280;9947;57.722;12.012;2023-02-14T06:16:01;102963.84;;;2.74;100.00
19600;BME280;9947;57.722;12.012;2023-02-14T06:18:35;102963.84;;;2.75;100.00
19600;BME280;9947;57.722;12.012;2023-02-14T06:21:05;102954.81;;;2.86;100.00
19600;BME280;9947;57.722;12.012;2023-02-14T06:23:39;102967.31;;;2.87;100.00
19600;BME280;9947;57.722;12.012;2023-02-14T06:26:06;102964.69;;;2.81;100.00
19600;BME280;9947;57.722;12.012;2023-02-14T06:28:40;102970.81;;;2.93;100.00
19600;BME280;9947;57.722;12.012;2023-02-14T06:31:14;102968.19;;;2.84;100.00
19600;BME280;9947;57.722;12.012;2023-02-14T06:33:47;102969.97;;;2.90;100.00
19600;BME280;9947;57.722;12.012;2023-02-14T06:36:22;102966.44;;;2.83;100.00
19600;BME280;9947;57.722;12.012;2023-02-14T06:38:49;102964.63;;;2.90;100.00
19600;BME280;9947;57.722;12.012;2023-02-14T06:41:22;102962.78;;;2.95;100.00
19600;BME280;9947;57.722;12.012;2023-02-14T06:43:56;102968.97;;;2.98;100.00
19600;BME280;9947;57.722;12.012;2023-02-14T06:46:31;102964.47;;;3.02;100.00
19600;BME280;9947;57.722;12.012;2023-02-14T06:49:05;102965.47;;;2.93;100.00
19600;BME280;9947;57.722;12.012;2023-02-14T06:51:32;102969.03;;;2.92;100.00
19600;BME280;9947;57.722;12.012;2023-02-14T06:54:12;102973.41;;;2.99;100.00
19600;BME280;9947;57.722;12.012;2023-02-14T06:56:45;102971.56;;;3.04;100.00
19600;BME280;9947;57.722;12.012;2023-02-14T06:59:18;102966.25;;;3.03;100.00
19600;BME280;9947;57.722;12.012;2023-02-14T07:01:46;102971.59;;;3.03;100.00
19600;BME280;9947;57.722;12.012;2023-02-14T07:04:20;102963.59;;;3.01;100.00
19600;BME280;9947;57.722;12.012;2023-02-14T07:06:49;102975.97;;;3.10;100.00
19600;BME280;9947;57.722;12.012;2023-02-14T07:09:23;102973.28;;;3.12;100.00
19600;BME280;9947;57.722;12.012;2023-02-14T07:11:59;102974.19;;;3.10;100.00
19600;BME280;9947;57.722;12.012;2023-02-14T07:14:26;102975.97;;;3.08;100.00
19600;BME280;9947;57.722;12.012;2023-02-14T07:17:02;102975.00;;;3.19;100.00
19600;BME280;9947;57.722;12.012;2023-02-14T07:19:28;102975.09;;;3.13;100.00
19600;BME280;9947;57.722;12.012;2023-02-14T07:22:02;102981.25;;;3.18;100.00
19600;BME280;9947;57.722;12.012;2023-02-14T07:24:29;102974.97;;;3.23;100.00
19600;BME280;9947;57.722;12.012;2023-02-14T07:27:02;102983.78;;;3.31;100.00
19600;BME280;9947;57.722;12.012;2023-02-14T07:29:36;102974.81;;;3.34;100.00
19600;BME280;9947;57.722;12.012;2023-02-14T07:32:11;102973.81;;;3.46;100.00
19600;BME280;9947;57.722;12.012;2023-02-14T07:34:45;102967.66;;;3.36;100.00
19600;BME280;9947;57.722;12.012;2023-02-14T07:37:13;102975.69;;;3.39;100.00
19600;BME280;9947;57.722;12.012;2023-02-14T07:39:46;102976.53;;;3.43;100.00
19600;BME280;9947;57.722;12.012;2023-02-14T07:42:13;102970.31;;;3.42;100.00
19600;BME280;9947;57.722;12.012;2023-02-14T07:44:47;102972.91;;;3.47;100.00
19600;BME280;9947;57.722;12.012;2023-02-14T07:47:21;102977.31;;;3.51;100.00
19600;BME280;9947;57.722;12.012;2023-02-14T07:49:57;102975.44;;;3.59;100.00
19600;BME280;9947;57.722;12.012;2023-02-14T07:52:30;102983.41;;;3.62;100.00
19600;BME280;9947;57.722;12.012;2023-02-14T07:54:59;102981.59;;;3.64;100.00
19600;BME280;9947;57.722;12.012;2023-02-14T07:57:32;102985.16;;;3.67;100.00
19600;BME280;9947;57.722;12.012;2023-02-14T07:59:59;102980.41;;;3.88;100.00
19600;BME280;9947;57.722;12.012;2023-02-14T08:02:33;102981.38;;;3.82;100.00
19600;BME280;9947;57.722;12.012;2023-02-14T08:05:14;102983.28;;;3.74;100.00
19600;BME280;9947;57.722;12.012;2023-02-14T08:07:47;102988.56;;;3.79;100.00
19600;BME280;9947;57.722;12.012;2023-02-14T08:10:15;102986.78;;;3.79;100.00
19600;BME280;9947;57.722;12.012;2023-02-14T08:12:48;102982.22;;;3.86;100.00
19600;BME280;9947;57.722;12.012;2023-02-14T08:15:25;102980.59;;;3.74;100.00
19600;BME280;9947;57.722;12.012;2023-02-14T08:18:17;102979.56;;;3.86;100.00
19600;BME280;9947;57.722;12.012;2023-02-14T08:20:45;102985.56;;;4.05;100.00
19600;BME280;9947;57.722;12.012;2023-02-14T08:23:19;102988.53;;;3.82;100.00
19600;BME280;9947;57.722;12.012;2023-02-14T08:25:47;102984.00;;;3.85;100.00
19600;BME280;9947;57.722;12.012;2023-02-14T08:28:21;102985.72;;;3.92;100.00
19600;BME280;9947;57.722;12.012;2023-02-14T08:30:49;102979.47;;;3.93;100.00
19600;BME280;9947;57.722;12.012;2023-02-14T08:33:24;102985.81;;;3.85;100.00
19600;BME280;9947;57.722;12.012;2023-02-14T08:35:51;102990.31;;;3.81;100.00
19600;BME280;9947;57.722;12.012;2023-02-14T08:38:24;102995.56;;;3.90;100.00
19600;BME280;9947;57.722;12.012;2023-02-14T08:40:53;102994.63;;;3.94;100.00
19600;BME280;9947;57.722;12.012;2023-02-14T08:43:27;103001.50;;;4.12;100.00
19600;BME280;9947;57.722;12.012;2023-02-14T08:45:54;102996.13;;;4.14;100.00
19600;BME280;9947;57.722;12.012;2023-02-14T08:48:29;103002.47;;;4.07;100.00
19600;BME280;9947;57.722;12.012;2023-02-14T08:50:56;102999.78;;;4.07;100.00
19600;BME280;9947;57.722;12.012;2023-02-14T08:53:30;102996.22;;;4.08;100.00
19600;BME280;9947;57.722;12.012;2023-02-14T08:56:08;102999.72;;;4.11;100.00
19600;BME280;9947;57.722;12.012;2023-02-14T08:58:42;103004.00;;;4.26;100.00
19600;BME280;9947;57.722;12.012;2023-02-14T09:01:10;102998.34;;;4.46;100.00
19600;BME280;9947;57.722;12.012;2023-02-14T09:03:46;102993.97;;;4.39;100.00
19600;BME280;9947;57.722;12.012;2023-02-14T09:06:14;103001.00;;;4.47;100.00
19600;BME280;9947;57.722;12.012;2023-02-14T09:08:48;103005.53;;;4.44;100.00
19600;BME280;9947;57.722;12.012;2023-02-14T09:11:20;103004.63;;;4.45;100.00
19600;BME280;9947;57.722;12.012;2023-02-14T09:13:54;103014.41;;;4.47;100.00
19600;BME280;9947;57.722;12.012;2023-02-14T09:16:23;103006.38;;;4.46;100.00
19600;BME280;9947;57.722;12.012;2023-02-14T09:18:58;103006.56;;;4.33;100.00
19600;BME280;9947;57.722;12.012;2023-02-14T09:21:28;103010.00;;;4.43;100.00
19600;BME280;9947;57.722;12.012;2023-02-14T09:24:02;103005.63;;;4.36;100.00
19600;BME280;9947;57.722;12.012;2023-02-14T09:26:36;103013.69;;;4.33;100.00
19600;BME280;9947;57.722;12.012;2023-02-14T09:29:09;102995.94;;;4.27;100.00
19600;BME280;9947;57.722;12.012;2023-02-14T09:31:37;102995.81;;;4.35;100.00
19600;BME280;9947;57.722;12.012;2023-02-14T09:34:12;103001.03;;;4.46;100.00
19600;BME280;9947;57.722;12.012;2023-02-14T09:36:46;102996.28;;;4.63;100.00
19600;BME280;9947;57.722;12.012;2023-02-14T09:39:19;102998.94;;;4.63;100.00
19600;BME280;9947;57.722;12.012;2023-02-14T09:42:27;102996.25;;;4.64;100.00
19600;BME280;9947;57.722;12.012;2023-02-14T09:45:00;102996.28;;;4.63;100.00
19600;BME280;9947;57.722;12.012;2023-02-14T09:47:51;102999.88;;;4.62;100.00
19600;BME280;9947;57.722;12.012;2023-02-14T09:50:26;102990.16;;;4.55;100.00
19600;BME280;9947;57.722;12.012;2023-02-14T09:53:03;102995.59;;;4.50;100.00
19600;BME280;9947;57.722;12.012;2023-02-14T09:55:38;102990.88;;;4.64;100.00
19600;BME280;9947;57.722;12.012;2023-02-14T09:58:17;102998.34;;;4.46;100.00
19600;BME280;9947;57.722;12.012;2023-02-14T10:00:53;102997.41;;;4.48;100.00
19600;BME280;9947;57.722;12.012;2023-02-14T10:03:44;102999.94;;;4.57;100.00
19600;BME280;9947;57.722;12.012;2023-02-14T10:06:33;103000.75;;;4.62;100.00
19600;BME280;9947;57.722;12.012;2023-02-14T10:09:18;102993.69;;;4.57;100.00
19600;BME280;9947;57.722;12.012;2023-02-14T10:11:57;103002.50;;;4.65;100.00
19600;BME280;9947;57.722;12.012;2023-02-14T10:14:26;103004.22;;;4.71;100.00
19600;BME280;9947;57.722;12.012;2023-02-14T10:17:08;103003.34;;;4.67;100.00
19600;BME280;9947;57.722;12.012;2023-02-14T10:19:40;103007.06;;;4.58;100.00
19600;BME280;9947;57.722;12.012;2023-02-14T10:22:22;103015.03;;;4.63;100.00
19600;BME280;9947;57.722;12.012;2023-02-14T10:24:55;103008.06;;;4.53;100.00
19600;BME280;9947;57.722;12.012;2023-02-14T10:27:33;102999.00;;;4.60;100.00
19600;BME280;9947;57.722;12.012;2023-02-14T10:30:14;103009.66;;;4.64;100.00
19600;BME280;9947;57.722;12.012;2023-02-14T10:32:53;103009.53;;;4.72;100.00
19600;BME280;9947;57.722;12.012;2023-02-14T10:35:39;103005.13;;;4.70;100.00
19600;BME280;9947;57.722;12.012;2023-02-14T10:38:27;103012.38;;;4.61;100.00
19600;BME280;9947;57.722;12.012;2023-02-14T10:41:23;103008.84;;;4.58;100.00
19600;BME280;9947;57.722;12.012;2023-02-14T10:44:17;103012.13;;;4.77;100.00
19600;BME280;9947;57.722;12.012;2023-02-14T10:46:57;103006.84;;;4.74;100.00
19600;BME280;9947;57.722;12.012;2023-02-14T10:49:42;103001.41;;;4.77;100.00
19600;BME280;9947;57.722;12.012;2023-02-14T10:52:19;102998.78;;;4.74;100.00
19600;BME280;9947;57.722;12.012;2023-02-14T10:55:13;103005.13;;;4.67;100.00
19600;BME280;9947;57.722;12.012;2023-02-14T10:57:57;103002.44;;;4.68;100.00
19600;BME280;9947;57.722;12.012;2023-02-14T11:00:31;102998.69;;;4.80;100.00
19600;BME280;9947;57.722;12.012;2023-02-14T11:03:07;103009.56;;;4.71;100.00
19600;BME280;9947;57.722;12.012;2023-02-14T11:05:49;103012.84;;;4.88;100.00
19600;BME280;9947;57.722;12.012;2023-02-14T11:08:25;103004.94;;;4.80;100.00
19600;BME280;9947;57.722;12.012;2023-02-14T11:10:57;103001.16;;;4.92;100.00
19600;BME280;9947;57.722;12.012;2023-02-14T11:13:59;102997.78;;;4.81;100.00
19600;BME280;9947;57.722;12.012;2023-02-14T11:16:52;102997.56;;;4.94;100.00
19600;BME280;9947;57.722;12.012;2023-02-14T11:19:30;102996.44;;;5.06;100.00
19600;BME280;9947;57.722;12.012;2023-02-14T11:22:00;102992.16;;;4.96;100.00
19600;BME280;9947;57.722;12.012;2023-02-14T11:24:36;102997.66;;;4.87;100.00
19600;BME280;9947;57.722;12.012;2023-02-14T11:27:18;102988.81;;;4.83;100.00
19600;BME280;9947;57.722;12.012;2023-02-14T11:29:51;102994.06;;;4.88;100.00
19600;BME280;9947;57.722;12.012;2023-02-14T11:32:21;102990.47;;;4.89;100.00
19600;BME280;9947;57.722;12.012;2023-02-14T11:34:55;103008.47;;;4.82;100.00
19600;BME280;9947;57.722;12.012;2023-02-14T11:37:30;102985.19;;;4.86;100.00
19600;BME280;9947;57.722;12.012;2023-02-14T11:40:05;102975.50;;;4.77;100.00
19600;BME280;9947;57.722;12.012;2023-02-14T11:42:42;102980.03;;;4.74;100.00
19600;BME280;9947;57.722;12.012;2023-02-14T11:45:28;102982.28;;;5.00;100.00
19600;BME280;9947;57.722;12.012;2023-02-14T11:48:15;102969.09;;;4.86;100.00
19600;BME280;9947;57.722;12.012;2023-02-14T11:50:43;102975.63;;;4.71;100.00
19600;BME280;9947;57.722;12.012;2023-02-14T11:53:26;102970.16;;;4.77;100.00
19600;BME280;9947;57.722;12.012;2023-02-14T11:55:56;102967.78;;;4.59;100.00
19600;BME280;9947;57.722;12.012;2023-02-14T11:58:41;102962.09;;;4.79;100.00
19600;BME280;9947;57.722;12.012;2023-02-14T12:01:14;102959.81;;;4.54;100.00
19600;BME280;9947;57.722;12.012;2023-02-14T12:03:57;102961.69;;;4.49;100.00
19600;BME280;9947;57.722;12.012;2023-02-14T12:06:34;102962.31;;;4.63;100.00
19600;BME280;9947;57.722;12.012;2023-02-14T12:09:12;102963.41;;;4.53;100.00
19600;BME280;9947;57.722;12.012;2023-02-14T12:11:53;102967.91;;;4.51;100.00
19600;BME280;9947;57.722;12.012;2023-02-14T12:14:25;102958.22;;;4.43;100.00
19600;BME280;9947;57.722;12.012;2023-02-14T12:17:05;102957.31;;;4.44;100.00
19600;BME280;9947;57.722;12.012;2023-02-14T12:19:43;102954.63;;;4.44;100.00
19600;BME280;9947;57.722;12.012;2023-02-14T12:22:20;102952.22;;;4.27;100.00
19600;BME280;9947;57.722;12.012;2023-02-14T12:25:02;102946.03;;;4.23;100.00
19600;BME280;9947;57.722;12.012;2023-02-14T12:27:45;102943.19;;;4.32;100.00
19600;BME280;9947;57.722;12.012;2023-02-14T12:30:18;102939.84;;;4.20;100.00
19600;BME280;9947;57.722;12.012;2023-02-14T12:32:54;102948.56;;;4.32;100.00
19600;BME280;9947;57.722;12.012;2023-02-14T12:35:33;102952.25;;;4.24;100.00
19600;BME280;9947;57.722;12.012;2023-02-14T12:38:20;102950.53;;;4.20;100.00
19600;BME280;9947;57.722;12.012;2023-02-14T12:41:00;102950.56;;;4.18;100.00
19600;BME280;9947;57.722;12.012;2023-02-14T12:43:45;102942.53;;;4.18;100.00
19600;BME280;9947;57.722;12.012;2023-02-14T12:46:32;102945.16;;;4.23;100.00
19600;BME280;9947;57.722;12.012;2023-02-14T12:49:41;102938.78;;;4.30;100.00
19600;BME280;9947;57.722;12.012;2023-02-14T12:52:29;102943.94;;;4.44;100.00
19600;BME280;9947;57.722;12.012;2023-02-14T12:55:28;102937.72;;;4.40;100.00
19600;BME280;9947;57.722;12.012;2023-02-14T12:58:13;102934.28;;;4.32;100.00
19600;BME280;9947;57.722;12.012;2023-02-14T13:00:50;102930.78;;;4.27;100.00
19600;BME280;9947;57.722;12.012;2023-02-14T13:03:49;102927.25;;;4.25;100.00
19600;BME280;9947;57.722;12.012;2023-02-14T13:06:28;102922.84;;;4.22;100.00
19600;BME280;9947;57.722;12.012;2023-02-14T13:09:12;102918.03;;;4.44;100.00
19600;BME280;9947;57.722;12.012;2023-02-14T13:11:59;102913.78;;;4.31;100.00
19600;BME280;9947;57.722;12.012;2023-02-14T13:14:49;102913.13;;;4.14;100.00
19600;BME280;9947;57.722;12.012;2023-02-14T13:17:31;102908.53;;;4.25;100.00
19600;BME280;9947;57.722;12.012;2023-02-14T13:20:18;102914.69;;;4.30;100.00
19600;BME280;9947;57.722;12.012;2023-02-14T13:23:00;102897.56;;;4.39;100.00
19600;BME280;9947;57.722;12.012;2023-02-14T13:25:32;102900.31;;;4.36;100.00
19600;BME280;9947;57.722;12.012;2023-02-14T13:28:14;102902.03;;;4.38;100.00
19600;BME280;9947;57.722;12.012;2023-02-14T13:30:41;102898.53;;;4.34;100.00
19600;BME280;9947;57.722;12.012;2023-02-14T13:33:24;102900.19;;;4.42;100.00
19600;BME280;9947;57.722;12.012;2023-02-14T13:35:55;102900.19;;;4.43;100.00
19600;BME280;9947;57.722;12.012;2023-02-14T13:38:30;102895.69;;;4.45;100.00
19600;BME280;9947;57.722;12.012;2023-02-14T13:41:06;102900.50;;;4.23;100.00
19600;BME280;9947;57.722;12.012;2023-02-14T13:43:51;102895.09;;;4.28;100.00